createdAt,value
2019-05-18T00:01:25.396Z,0.00
2019-05-18T00:16:25.505Z,0.00
2019-05-18T00:31:25.697Z,0.00
2019-05-18T00:46:26.387Z,0.00
2019-05-18T01:01:26.531Z,0.00
2019-05-18T01:16:26.761Z,0.00
2019-05-18T01:31:26.922Z,0.00
2019-05-18T01:46:28.395Z,0.00
2019-05-18T02:01:28.485Z,0.00
2019-05-18T02:16:28.681Z,0.00
2019-05-18T02:31:28.909Z,0.00
2019-05-18T02:46:29.118Z,0.00
2019-05-18T03:01:29.215Z,5.62
2019-05-18T03:16:29.333Z,16.88
2019-05-18T03:31:29.545Z,39.38
2019-05-18T03:46:29.744Z,73.12
2019-05-18T04:01:29.946Z,106.88
2019-05-18T04:16:30.093Z,140.62
2019-05-18T04:31:32.363Z,174.38
2019-05-18T04:46:33.441Z,219.38
2019-05-18T05:01:33.660Z,264.38
2019-05-18T05:16:33.968Z,275.62
2019-05-18T05:31:34.161Z,343.12
2019-05-18T05:46:37.258Z,371.25
2019-05-18T06:01:37.551Z,393.75
2019-05-18T06:16:37.774Z,438.75
2019-05-18T06:31:37.882Z,506.25
2019-05-18T06:46:38.101Z,646.88
2019-05-18T07:01:38.308Z,810.00
2019-05-18T07:16:38.975Z,1029.38
2019-05-18T07:31:39.122Z,1243.12
2019-05-18T07:46:39.297Z,1552.50
2019-05-18T08:01:39.459Z,1805.62
2019-05-18T08:16:39.666Z,1873.12
2019-05-18T08:31:39.829Z,2255.62
2019-05-18T08:46:39.981Z,2418.75
2019-05-18T09:01:40.139Z,2340.00
2019-05-18T09:16:40.292Z,2986.88
2019-05-18T09:31:40.437Z,3217.50
2019-05-18T09:46:40.672Z,3431.25
2019-05-18T10:01:40.819Z,3504.38
2019-05-18T10:16:41.013Z,3729.38
2019-05-18T10:31:41.167Z,3903.75
2019-05-18T10:46:41.293Z,3999.38
2019-05-18T11:01:43.861Z,3723.75
2019-05-18T11:16:44.644Z,3616.88
2019-05-18T11:31:44.763Z,3796.88
2019-05-18T11:46:44.975Z,911.25
2019-05-18T12:01:45.172Z,3633.75
2019-05-18T12:16:45.374Z,708.75
2019-05-18T12:31:45.589Z,3532.50
2019-05-18T12:46:45.726Z,3330.00
2019-05-18T13:01:45.797Z,500.62
2019-05-18T13:16:46.011Z,1828.12
2019-05-18T13:31:46.121Z,2660.62
2019-05-18T13:46:46.263Z,2508.75
2019-05-18T14:01:46.419Z,2165.62
2019-05-18T14:16:46.643Z,2002.50
2019-05-18T14:31:46.835Z,1710.00
2019-05-18T14:46:46.923Z,1485.00
2019-05-18T15:01:47.176Z,343.12
2019-05-18T15:16:48.716Z,444.38
2019-05-18T15:31:48.912Z,258.75
2019-05-18T15:46:49.137Z,562.50
2019-05-18T16:01:49.250Z,523.12
2019-05-18T16:16:54.419Z,433.12
2019-05-18T16:31:55.659Z,320.62
2019-05-18T16:46:55.925Z,208.12
2019-05-18T17:01:56.117Z,208.12
2019-05-18T17:16:56.335Z,275.62
2019-05-18T17:31:56.530Z,230.62
2019-05-18T17:46:56.741Z,168.75
2019-05-18T18:01:56.959Z,101.25
2019-05-18T18:16:57.153Z,67.50
2019-05-18T18:31:57.411Z,45.00
2019-05-18T18:46:57.556Z,28.12
2019-05-18T19:01:57.899Z,11.25
2019-05-18T19:16:58.098Z,0.00
2019-05-18T19:31:58.305Z,0.00
2019-05-18T19:46:58.517Z,0.00
2019-05-18T20:01:58.730Z,0.00
2019-05-18T20:16:58.866Z,0.00
2019-05-18T20:31:59.047Z,0.00
2019-05-18T20:46:59.283Z,0.00
2019-05-18T21:01:59.505Z,0.00
2019-05-18T21:16:59.590Z,0.00
2019-05-18T21:31:59.799Z,0.00
2019-05-18T21:46:59.914Z,0.00
2019-05-18T22:02:00.155Z,0.00
2019-05-18T22:17:00.227Z,0.00
2019-05-18T22:32:00.427Z,0.00
2019-05-18T22:47:00.639Z,0.00
2019-05-18T23:02:00.746Z,0.00
2019-05-18T23:17:00.961Z,0.00
2019-05-18T23:32:01.169Z,0.00
2019-05-18T23:47:01.361Z,0.00
